Aérodrome :
LOGIN :

S'inscrire | Disclaimer

   EN    FR    IT 

 










Légende :    VFR   VFR Marginal   IFR   IFR Intensif   IFR Très Intensif
Visi : 
Plafond : 
>= 8 km
>= 3000ft
5 à 8 km
1000 à 3000 ft
1500m à 5 km
500 à 1000 ft
800 à 1500m
200 à 500 ft
< 800m
< 200 ft
Symboles :   Orages  Brouillard  Fortes neiges  Fortes précipitations  Vent > 20 kt
SIGMETs :   Divers  Orages  Givrage  Turbulence  Onde Orograph.  Cendres Volcan.






- Altitude de l'aérodrome : 49 ft
- Code IATA : SEN


EGMC - Southend

DERNIER METAR :
  • 301850Z 22009KT 9999 FEW042 19/08 Q1012

METARs EXPIRÉS :
  • 301820Z 20006KT 9999 FEW042 19/08 Q1012
  • 301750Z 20006KT 9999 FEW032 19/08 Q1011
  • 301720Z 17005KT 9999 FEW032 19/09 Q1012
  • 301650Z 17007KT 9999 FEW032 19/09 Q1012

TAF TAF EGMC
Valide du 30 à 18h jusqu'au 01 à 03h UTC


301659Z 3018/0103 19009KT 9999 SCT045
PROB30
TEMPO 3018/3020 8000 SHRA



MET'MAP, la Météo Aéronautique d'un coup d'oeil ! - Copyright ORBIFLY Décembre 2007 - Disclaimer

ORBIFLY MET'MAP TEAM :

Programmation & Développement : Alexandra Zaïnal
Sur une idée originale de : Baudouin d'Aumeries
Soutien technique & logistique : Manuel Goepfert
Assistance : Marc-Olivier Méhu




SOURCES & CREDITS :

   NOAA